Strona główna
METAR-TAF:

METAR-TAF

Lotnisko :

New Castle, Pensylwania, Stany Zjednoczone

Szerokość geograficzna: 41-01-31N, Długość geograficzna: 080-24-48W, wysokość: 326 m

Aktualna obserwacja pogody

Raport powstał 1 godzina i 2 minut temu, godzina 06:56 UTC
Wiatr 12 kt od zachodnio-południowy zachód
Temperatura -6°C
Wilgotność 68%
Ciśnienie 1013 hPa
Widzialność: 16.1 km
Zachmurzenie całkowite na wysokości 5500 ft

METAR: KUCP 280656Z AUTO 25012KT 10SM OVC055 M06/M11 A2991 RMK AO2 SLP161 T10611106 PNO $

czas: 02:58 (07:58 UTC)


TAF: brakujący

Obserwacja i prognoza pogody dla ponad 4000 lotnisk (raport METAR i TAF).

Dostępne stacje oznaczono żółtymi i czerwonymi punktami na mapie.

Najedź kursorem aby zobaczyć nazwę stacji.

Kliknij aby zobaczyć obserwacje i prognozy pogody.

Aby zmienić mapę: kliknij na zielony przycisk z czarnym krzyżykiem, aby powiększyć; na zielony przycisk z myślnikiem, aby pomniejszyć; na zielone strzałki, aby przejść do map sąsiednich.


METAR-TAF: